ID Time Temp Humidity Light PM2.5 PM10 Voltage Extra Firmware Position Fcnt Gateways Distance RSSI LSNR Radiosettings
51 2020-01-18 07:38:55 3.1875°C 95.125% 3.38V v1 52.1991 / 5.41214 16775 tonzttn 0.005km -69 12 867.7Mhz, SF9BW125, 4/5CR
51 2020-01-18 07:21:59 3.25°C 95% 3.38V v1 52.1991 / 5.41214 16774 tonzttn 0.005km -78 8.5 868.5Mhz, SF9BW125, 4/5CR
Meetjestad #4 (De Koperhorst) 3.668km -111 -12 868.5Mhz, SF9BW125, 4/5CR
51 2020-01-18 07:05:04 3.375°C 94.75% 3.38V v1 52.1991 / 5.41214 16773 tonzttn 0.005km -67 8.5 867.5Mhz, SF9BW125, 4/5CR
Meetjestad #4 (De Koperhorst) 3.668km -119 -9.75 867.5Mhz, SF9BW125, 4/5CR
51 2020-01-18 06:48:08 3.625°C 94.0625% 3.38V v1 52.1991 / 5.41214 16772 tonzttn 0.005km -77 13 868.3Mhz, SF9BW125, 4/5CR
Meetjestad #4 (De Koperhorst) 3.668km -114 -3 868.3Mhz, SF9BW125, 4/5CR
51 2020-01-18 06:31:12 3.625°C 94% 3.38V v1 52.1991 / 5.41214 16771 tonzttn 0.005km -69 13.25 867.3Mhz, SF9BW125, 4/5CR
51 2020-01-18 06:14:16 3.5°C 93.8125% 3.38V v1 52.1991 / 5.41214 16770 tonzttn 0.005km -77 12.75 868.1Mhz, SF9BW125, 4/5CR
Meetjestad #4 (De Koperhorst) 3.668km -117 -1.75 868.1Mhz, SF9BW125, 4/5CR
51 2020-01-18 05:57:21 3.6875°C 93.5625% 3.38V v1 52.1991 / 5.41214 16769 tonzttn 0.005km -69 12.25 867.1Mhz, SF9BW125, 4/5CR
Meetjestad #4 (De Koperhorst) 3.668km -120 -0.75 867.1Mhz, SF9BW125, 4/5CR
51 2020-01-18 05:40:25 3.75°C 94.375% 3.38V v1 52.1991 / 5.41214 16768 tonzttn 0.005km -77 9.25 868.5Mhz, SF9BW125, 4/5CR
Meetjestad #4 (De Koperhorst) 3.668km -119 -12.25 868.5Mhz, SF9BW125, 4/5CR
51 2020-01-18 05:23:29 3.8125°C 94.875% 3.38V v1 52.1991 / 5.41214 16767 tonzttn 0.005km -71 10.5 867.9Mhz, SF9BW125, 4/5CR
Meetjestad #4 (De Koperhorst) 3.668km -118 -8.5 867.9Mhz, SF9BW125, 4/5CR
51 2020-01-18 05:06:33 3.875°C 95.5% 3.38V v1 52.1991 / 5.41214 16766 tonzttn 0.005km -72 11.5 868.3Mhz, SF9BW125, 4/5CR
Meetjestad #4 (De Koperhorst) 3.668km -108 -12 868.3Mhz, SF9BW125, 4/5CR
51 2020-01-18 04:49:37 3.875°C 95.875% 3.38V v1 52.1991 / 5.41214 16765 tonzttn 0.005km -73 12 867.7Mhz, SF9BW125, 4/5CR
Meetjestad #4 (De Koperhorst) 3.668km -119 -2 867.7Mhz, SF9BW125, 4/5CR
51 2020-01-18 04:32:42 3.8125°C 95.75% 3.38V v1 52.1991 / 5.41214 16764 tonzttn 0.005km -77 13.25 868.1Mhz, SF9BW125, 4/5CR
51 2020-01-18 04:15:46 3.8125°C 95.5625% 3.38V v1 52.1991 / 5.41214 16763 tonzttn 0.005km -69 9 867.5Mhz, SF9BW125, 4/5CR
Meetjestad #4 (De Koperhorst) 3.668km -115 -2.25 867.5Mhz, SF9BW125, 4/5CR
51 2020-01-18 03:58:50 3.8125°C 96.0625% 3.38V v1 52.1991 / 5.41214 16762 tonzttn 0.005km -79 9.25 868.5Mhz, SF9BW125, 4/5CR
51 2020-01-18 03:41:54 3.625°C 96.125% 3.38V v1 52.1991 / 5.41214 16761 tonzttn 0.005km -73 13.5 867.3Mhz, SF9BW125, 4/5CR
Meetjestad #4 (De Koperhorst) 3.668km -117 0.5 867.3Mhz, SF9BW125, 4/5CR
51 2020-01-18 03:24:58 3.3125°C 95.5625% 3.38V v1 52.1991 / 5.41214 16760 tonzttn 0.005km -73 12.25 868.3Mhz, SF9BW125, 4/5CR
Meetjestad #4 (De Koperhorst) 3.668km -113 -3.25 868.3Mhz, SF9BW125, 4/5CR
51 2020-01-18 03:08:03 3.4375°C 95.3125% 3.38V v1 52.1991 / 5.41214 16759 tonzttn 0.005km -73 14.25 867.1Mhz, SF9BW125, 4/5CR
Meetjestad #4 (De Koperhorst) 3.668km -117 1.75 867.1Mhz, SF9BW125, 4/5CR
51 2020-01-18 02:51:07 3.5°C 95.3125% 3.38V v1 52.1991 / 5.41214 16758 tonzttn 0.005km -77 12.75 868.1Mhz, SF9BW125, 4/5CR
Meetjestad #4 (De Koperhorst) 3.668km -121 -9.75 868.1Mhz, SF9BW125, 4/5CR
51 2020-01-18 02:34:11 3.625°C 95.25% 3.38V v1 52.1991 / 5.41214 16757 tonzttn 0.005km -77 12.75 867.9Mhz, SF9BW125, 4/5CR
Meetjestad #4 (De Koperhorst) 3.668km -120 -3.5 867.9Mhz, SF9BW125, 4/5CR
51 2020-01-18 02:17:15 3.625°C 94.8125% 3.38V v1 52.1991 / 5.41214 16756 tonzttn 0.005km -78 8.75 868.5Mhz, SF9BW125, 4/5CR
Meetjestad #4 (De Koperhorst) 3.668km -115 -7.75 868.5Mhz, SF9BW125, 4/5CR
51 2020-01-18 02:00:20 3.8125°C 94.5% 3.38V v1 52.1991 / 5.41214 16755 tonzttn 0.005km -71 12.5 867.7Mhz, SF9BW125, 4/5CR
Meetjestad #4 (De Koperhorst) 3.668km -119 -10 867.7Mhz, SF9BW125, 4/5CR
51 2020-01-18 01:43:24 4.0625°C 94.4375% 3.38V v1 52.1991 / 5.41214 16754 tonzttn 0.005km -75 12.75 868.3Mhz, SF9BW125, 4/5CR
51 2020-01-18 01:26:28 4.25°C 94.3125% 3.38V v1 52.1991 / 5.41214 16753 tonzttn 0.005km -69 9.25 867.5Mhz, SF9BW125, 4/5CR
Meetjestad #4 (De Koperhorst) 3.668km -117 -3 867.5Mhz, SF9BW125, 4/5CR
51 2020-01-18 01:09:32 4.375°C 93.6875% 3.38V v1 52.1991 / 5.41214 16752 tonzttn 0.005km -75 12 868.1Mhz, SF9BW125, 4/5CR
Meetjestad #4 (De Koperhorst) 3.668km -119 -5.25 868.1Mhz, SF9BW125, 4/5CR
51 2020-01-18 00:52:36 4.5625°C 91.3125% 3.38V v1 52.1991 / 5.41214 16751 tonzttn 0.005km -71 13.75 867.3Mhz, SF9BW125, 4/5CR
Meetjestad #4 (De Koperhorst) 3.668km -119 0 867.3Mhz, SF9BW125, 4/5CR
51 2020-01-18 00:35:40 5.125°C 87.375% 3.38V v1 52.1991 / 5.41214 16750 tonzttn 0.005km -79 9.25 868.5Mhz, SF9BW125, 4/5CR
51 2020-01-18 00:18:44 4.6875°C 86.25% 3.38V v1 52.1991 / 5.41214 16749 tonzttn 0.005km -71 11.75 867.1Mhz, SF9BW125, 4/5CR
51 2020-01-18 00:01:48 4.9375°C 84.6875% 3.38V v1 52.1991 / 5.41214 16748 tonzttn 0.005km -79 12 868.3Mhz, SF9BW125, 4/5CR
Meetjestad #4 (De Koperhorst) 3.668km -109 -8.5 868.3Mhz, SF9BW125, 4/5CR
51 2020-01-17 23:44:52 5.125°C 84.125% 3.38V v1 52.1991 / 5.41214 16747 tonzttn 0.005km -71 10.75 867.9Mhz, SF9BW125, 4/5CR
Meetjestad #4 (De Koperhorst) 3.668km -120 -9.5 867.9Mhz, SF9BW125, 4/5CR
51 2020-01-17 23:27:55 5.375°C 83.25% 3.38V v1 52.1991 / 5.41214 16746 tonzttn 0.005km -83 13 868.1Mhz, SF9BW125, 4/5CR
Meetjestad #4 (De Koperhorst) 3.668km -120 -4.5 868.1Mhz, SF9BW125, 4/5CR
51 2020-01-17 23:10:59 5.5°C 83.4375% 3.38V v1 52.1991 / 5.41214 16745 tonzttn 0.005km -72 11.25 867.7Mhz, SF9BW125, 4/5CR
51 2020-01-17 22:54:04 5.5°C 83.0625% 3.38V v1 52.1991 / 5.41214 16744 tonzttn 0.005km -73 8.75 868.5Mhz, SF9BW125, 4/5CR
Meetjestad #4 (De Koperhorst) 3.668km -119 -8 868.5Mhz, SF9BW125, 4/5CR
51 2020-01-17 22:37:07 5.6875°C 82.75% 3.38V v1 52.1991 / 5.41214 16743 tonzttn 0.005km -71 8.75 867.5Mhz, SF9BW125, 4/5CR
Meetjestad #4 (De Koperhorst) 3.668km -115 0.25 867.5Mhz, SF9BW125, 4/5CR
51 2020-01-17 22:20:10 5.875°C 82.3125% 3.38V v1 52.1991 / 5.41214 16742 tonzttn 0.005km -79 12.75 868.3Mhz, SF9BW125, 4/5CR
51 2020-01-17 22:03:14 6.1875°C 81.625% 3.38V v1 52.1991 / 5.41214 16741 tonzttn 0.005km -70 12.5 867.3Mhz, SF9BW125, 4/5CR
Meetjestad #4 (De Koperhorst) 3.668km -120 -6.5 867.3Mhz, SF9BW125, 4/5CR
51 2020-01-17 21:46:17 6.625°C 80.3125% 3.38V v1 52.1991 / 5.41214 16740 tonzttn 0.005km -77 13 868.1Mhz, SF9BW125, 4/5CR
Meetjestad #4 (De Koperhorst) 3.668km -120 -0.75 868.1Mhz, SF9BW125, 4/5CR
51 2020-01-17 21:29:21 6.6875°C 80% 3.38V v1 52.1991 / 5.41214 16739 tonzttn 0.005km -73 11.25 867.1Mhz, SF9BW125, 4/5CR
51 2020-01-17 21:12:24 6.8125°C 79.875% 3.38V v1 52.1991 / 5.41214 16738 tonzttn 0.005km -78 9 868.5Mhz, SF9BW125, 4/5CR
Meetjestad #4 (De Koperhorst) 3.668km -115 -7.75 868.5Mhz, SF9BW125, 4/5CR
51 2020-01-17 20:55:28 6.8125°C 82.5625% 3.38V v1 52.1991 / 5.41214 16737 tonzttn 0.005km -73 9.75 867.9Mhz, SF9BW125, 4/5CR
Meetjestad #4 (De Koperhorst) 3.668km -120 -6.25 867.9Mhz, SF9BW125, 4/5CR
51 2020-01-17 20:38:31 7.0625°C 79.5625% 3.38V v1 52.1991 / 5.41214 16736 tonzttn 0.005km -77 13 868.3Mhz, SF9BW125, 4/5CR
51 2020-01-17 20:21:35 7.1875°C 77.8125% 3.38V v1 52.1991 / 5.41214 16735 tonzttn 0.005km -77 11.25 867.7Mhz, SF9BW125, 4/5CR
Meetjestad #4 (De Koperhorst) 3.668km -117 2.25 867.7Mhz, SF9BW125, 4/5CR
51 2020-01-17 20:04:38 7.375°C 76.0625% 3.38V v1 52.1991 / 5.41214 16734 tonzttn 0.005km -77 13.5 868.1Mhz, SF9BW125, 4/5CR
Meetjestad #4 (De Koperhorst) 3.668km -119 1.25 868.1Mhz, SF9BW125, 4/5CR
51 2020-01-17 19:47:41 7.75°C 77.0625% 3.38V v1 52.1991 / 5.41214 16733 tonzttn 0.005km -71 10 867.5Mhz, SF9BW125, 4/5CR
Meetjestad #4 (De Koperhorst) 3.668km -117 -1.75 867.5Mhz, SF9BW125, 4/5CR
51 2020-01-17 19:30:45 7.875°C 79.6875% 3.38V v1 52.1991 / 5.41214 16732 tonzttn 0.005km -83 10 868.5Mhz, SF9BW125, 4/5CR
Meetjestad #4 (De Koperhorst) 3.668km -112 -6.5 868.5Mhz, SF9BW125, 4/5CR
51 2020-01-17 19:13:48 8°C 81.375% 3.38V v1 52.1991 / 5.41214 16731 tonzttn 0.005km -69 11.75 867.3Mhz, SF9BW125, 4/5CR
Meetjestad #4 (De Koperhorst) 3.668km -119 -4.5 867.3Mhz, SF9BW125, 4/5CR
51 2020-01-17 18:56:51 8.125°C 84.25% 3.38V v1 52.1991 / 5.41214 16730 tonzttn 0.005km -72 11.75 868.3Mhz, SF9BW125, 4/5CR
51 2020-01-17 18:39:54 8.5°C 84.875% 3.38V v1 52.1991 / 5.41214 16729 tonzttn 0.005km -71 12.75 867.1Mhz, SF9BW125, 4/5CR
Meetjestad #4 (De Koperhorst) 3.668km -120 -2.25 867.1Mhz, SF9BW125, 4/5CR
eui-0000024b080e0ffd 24.221km -120 -12.8 867.1Mhz, SF9BW125, 4/5CR
51 2020-01-17 18:22:57 8.6875°C 84.8125% 3.38V v1 52.1991 / 5.41214 16728 tonzttn 0.005km -81 12.25 868.1Mhz, SF9BW125, 4/5CR
Meetjestad #4 (De Koperhorst) 3.668km -121 -13 868.1Mhz, SF9BW125, 4/5CR
51 2020-01-17 18:06:00 8.375°C 88.0625% 3.38V v1 52.1991 / 5.41214 16727 tonzttn 0.005km -79 13.5 867.9Mhz, SF9BW125, 4/5CR
51 2020-01-17 17:49:04 8.5°C 88.75% 3.38V v1 52.1991 / 5.41214 16726 tonzttn 0.005km -77 8.5 868.5Mhz, SF9BW125, 4/5CR
Meetjestad #4 (De Koperhorst) 3.668km -114 -8.75 868.5Mhz, SF9BW125, 4/5CR

Message count: 50

Node count: 1

Messages per node

Number of messages in list aboveNodes
5051

Statistics per gateway

GatewayNumber of messagesNumber of nodesNodes
tonzttn (filter)50151 (0.005km)
Meetjestad #4 (De Koperhorst) (filter)37151 (3.668km)
eui-0000024b080e0ffd (filter)1151 (24.221km)

Filter by dataset